Time;durP1;ratioP1;P1;durP2;ratioP2;P2;SDS_P1;SDS_P2;PMS_P1;PMS_P2;Temp;Humidity;BMP_temperature;BMP_pressure;BME280_temperature;BME280_humidity;BME280_pressure;Samples;Min_cycle;Max_cycle;Signal;HPM_P1;HPM_P2
2023/03/02 00:00:15;;;;;;;5.78;3.10;;;;;;;;;;5051832;28;20031;-73
2023/03/02 00:02:41;;;;;;;10.68;3.17;;;;;;;;;;5051821;28;20112;-72
2023/03/02 00:05:08;;;;;;;5.47;3.00;;;;;;;;;;5051912;28;20447;-71
2023/03/02 00:07:35;;;;;;;5.78;3.50;;;;;;;;;;5051980;28;20033;-73
2023/03/02 00:10:01;;;;;;;7.78;3.13;;;;;;;;;;5051799;28;20036;-71
2023/03/02 00:12:28;;;;;;;6.13;2.88;;;;;;;;;;5052016;28;20028;-73
2023/03/02 00:14:54;;;;;;;5.70;3.25;;;;;;;;;;5051875;28;20086;-72
2023/03/02 00:17:26;;;;;;;8.55;3.83;;;;;;;;;;5051433;28;20387;-71
2023/03/02 00:19:52;;;;;;;;;;;;;;;;;;5043070;28;20505;-72
2023/03/02 00:22:19;;;;;;;7.90;3.55;;;;;;;;;;5031669;28;19905;-71
2023/03/02 00:24:45;;;;;;;7.63;3.90;;;;;;;;;;5032080;28;20104;-71
2023/03/02 00:27:11;;;;;;;8.32;3.45;;;;;;;;;;5031475;28;20022;-72
2023/03/02 00:29:37;;;;;;;7.75;3.83;;;;;;;;;;5030182;28;20075;-71
2023/03/02 00:32:03;;;;;;;11.45;3.95;;;;;;;;;;5031344;28;20080;-71
2023/03/02 00:34:33;;;;;;;6.35;3.50;;;;;;;;;;5039063;28;20029;-70
2023/03/02 00:36:59;;;;;;;7.15;3.72;;;;;;;;;;5048156;28;20029;-72
2023/03/02 00:39:25;;;;;;;7.90;4.15;;;;;;;;;;5051394;28;20029;-72
2023/03/02 00:41:51;;;;;;;5.18;3.45;;;;;;;;;;5051400;28;20027;-73
2023/03/02 00:44:17;;;;;;;7.85;3.70;;;;;;;;;;5051342;28;20025;-73
2023/03/02 00:46:43;;;;;;;9.60;4.70;;;;;;;;;;5051347;28;20017;-71
2023/03/02 00:49:10;;;;;;;9.70;4.35;;;;;;;;;;5051148;28;20025;-71
2023/03/02 00:51:36;;;;;;;9.52;3.97;;;;;;;;;;5049636;28;20025;-72
2023/03/02 00:54:03;;;;;;;9.70;4.70;;;;;;;;;;5047916;28;20037;-72
2023/03/02 00:56:29;;;;;;;13.10;5.20;;;;;;;;;;5051369;28;20025;-72
2023/03/02 00:58:55;;;;;;;11.73;5.53;;;;;;;;;;5051138;28;20451;-73
2023/03/02 01:01:21;;;;;;;15.43;5.78;;;;;;;;;;5051349;28;20025;-73
2023/03/02 01:03:47;;;;;;;16.33;6.38;;;;;;;;;;5051102;28;20031;-73
2023/03/02 01:06:15;;;;;;;9.85;4.25;;;;;;;;;;5051110;28;20100;-73
2023/03/02 01:08:41;;;;;;;9.85;4.60;;;;;;;;;;5051145;28;20109;-71
2023/03/02 01:11:17;;;;;;;12.77;4.38;;;;;;;;;;5045344;28;20061;-71
2023/03/02 01:13:43;;;;;;;13.70;4.60;;;;;;;;;;5048151;28;20043;-72
2023/03/02 01:16:10;;;;;;;11.32;5.00;;;;;;;;;;5050853;28;20040;-72
2023/03/02 01:18:37;;;;;;;14.13;5.10;;;;;;;;;;5050723;28;20393;-72
2023/03/02 01:21:13;;;;;;;10.63;4.70;;;;;;;;;;5051054;28;20029;-71
2023/03/02 01:23:39;;;;;;;8.75;4.53;;;;;;;;;;5050912;28;20482;-72
2023/03/02 01:26:05;;;;;;;9.48;4.72;;;;;;;;;;5050837;28;20107;-72
2023/03/02 01:28:31;;;;;;;11.43;5.63;;;;;;;;;;5048468;28;20033;-72
2023/03/02 01:31:00;;;;;;;12.85;5.80;;;;;;;;;;5039555;28;20025;-72
2023/03/02 01:33:26;;;;;;;16.30;6.68;;;;;;;;;;5049467;28;20031;-73
2023/03/02 01:35:52;;;;;;;12.02;6.28;;;;;;;;;;5036959;28;20022;-72
2023/03/02 01:38:18;;;;;;;12.13;6.20;;;;;;;;;;5030900;28;20028;-73
2023/03/02 01:40:44;;;;;;;11.38;5.15;;;;;;;;;;5029757;28;20025;-73
2023/03/02 01:43:12;;;;;;;14.70;6.05;;;;;;;;;;5030888;28;20029;-72
2023/03/02 01:45:52;;;;;;;13.10;6.38;;;;;;;;;;5031072;28;20048;-73
2023/03/02 01:48:23;;;;;;;12.25;5.68;;;;;;;;;;5046535;28;20021;-72
2023/03/02 01:50:49;;;;;;;10.07;5.88;;;;;;;;;;5050758;28;20056;-73
2023/03/02 01:53:16;;;;;;;12.52;5.85;;;;;;;;;;5050571;28;20028;-73
2023/03/02 01:55:43;;;;;;;11.32;6.22;;;;;;;;;;5049467;28;20040;-71
2023/03/02 01:58:09;;;;;;;11.77;5.70;;;;;;;;;;5050604;28;20078;-72
2023/03/02 02:00:37;;;;;;;14.98;6.30;;;;;;;;;;5050742;28;20032;-73
2023/03/02 02:03:08;;;;;;;13.68;5.93;;;;;;;;;;5050633;28;20032;-73
2023/03/02 02:05:36;;;;;;;13.80;6.05;;;;;;;;;;5050719;28;20036;-73
2023/03/02 02:08:02;;;;;;;11.27;6.20;;;;;;;;;;5050658;28;20044;-72
2023/03/02 02:10:29;;;;;;;11.82;6.00;;;;;;;;;;5050612;28;20036;-74
2023/03/02 02:12:55;;;;;;;12.07;5.72;;;;;;;;;;5050702;28;20036;-73
2023/03/02 02:15:21;;;;;;;16.10;6.57;;;;;;;;;;5050552;28;20557;-73
2023/03/02 02:17:47;;;;;;;11.82;6.03;;;;;;;;;;5050440;28;20033;-74
2023/03/02 02:20:18;;;;;;;14.32;7.25;;;;;;;;;;5049963;28;20060;-73
2023/03/02 02:22:44;;;;;;;16.52;6.93;;;;;;;;;;5053791;28;20100;-74
2023/03/02 02:25:38;;;;;;;13.43;6.57;;;;;;;;;;5034902;28;20593;-73
2023/03/02 02:28:08;;;;;;;13.60;6.25;;;;;;;;;;5033016;28;20041;-74
2023/03/02 02:30:36;;;;;;;11.98;6.30;;;;;;;;;;5034092;28;20024;-73
2023/03/02 02:33:02;;;;;;;14.05;6.55;;;;;;;;;;5033894;28;20037;-73
2023/03/02 02:35:30;;;;;;;19.20;7.45;;;;;;;;;;5033878;28;20033;-73
2023/03/02 02:37:58;;;;;;;17.27;7.35;;;;;;;;;;5032459;28;20079;-72
2023/03/02 02:40:44;;;;;;;18.45;7.45;;;;;;;;;;5036779;28;20024;-72
2023/03/02 02:43:12;;;;;;;16.95;8.63;;;;;;;;;;5038301;28;20025;-73
2023/03/02 02:45:38;;;;;;;20.05;8.45;;;;;;;;;;5033678;28;20100;-72
2023/03/02 02:48:05;;;;;;;16.52;8.48;;;;;;;;;;5032745;28;20029;-74
2023/03/02 02:50:33;;;;;;;18.52;8.48;;;;;;;;;;5032398;28;20030;-73
2023/03/02 02:53:03;;;;;;;21.63;7.63;;;;;;;;;;5033447;28;20034;-72
2023/03/02 02:55:29;;;;;;;21.10;8.90;;;;;;;;;;5032023;28;20426;-71
2023/03/02 02:57:57;;;;;;;18.02;7.88;;;;;;;;;;5033450;28;20032;-72
2023/03/02 03:00:23;;;;;;;18.73;8.27;;;;;;;;;;5036499;28;20035;-73
2023/03/02 03:03:01;;;;;;;24.02;9.35;;;;;;;;;;5033475;28;20023;-73
2023/03/02 03:05:27;;;;;;;17.45;8.07;;;;;;;;;;5033394;28;20552;-72
2023/03/02 03:08:05;;;;;;;19.42;8.90;;;;;;;;;;5033401;28;20024;-72
2023/03/02 03:10:33;;;;;;;25.88;8.57;;;;;;;;;;5033197;28;20599;-71
2023/03/02 03:13:00;;;;;;;19.92;8.57;;;;;;;;;;5033235;28;20026;-71
2023/03/02 03:15:26;;;;;;;20.85;9.30;;;;;;;;;;5033354;28;20033;-71
2023/03/02 03:17:56;;;;;;;20.35;9.15;;;;;;;;;;5035769;28;20074;-71
2023/03/02 03:20:23;;;;;;;20.42;8.40;;;;;;;;;;5052393;28;20370;-72
2023/03/02 03:22:52;;;;;;;18.15;8.82;;;;;;;;;;5051696;28;20048;-72
2023/03/02 03:25:18;;;;;;;27.60;10.13;;;;;;;;;;5052890;28;20025;-71
2023/03/02 03:27:44;;;;;;;25.95;9.90;;;;;;;;;;5052744;28;20499;-71
2023/03/02 03:30:12;;;;;;;22.42;9.38;;;;;;;;;;5051313;28;20025;-73
2023/03/02 03:32:38;;;;;;;20.92;9.32;;;;;;;;;;5051822;28;20033;-73
2023/03/02 03:35:07;;;;;;;21.13;8.98;;;;;;;;;;5046084;28;20039;-70
2023/03/02 03:37:34;;;;;;;29.88;10.85;;;;;;;;;;5034320;28;20029;-71
2023/03/02 03:40:00;;;;;;;23.45;10.60;;;;;;;;;;5051735;28;20051;-73
2023/03/02 03:42:26;;;;;;;29.42;11.07;;;;;;;;;;5071485;28;20113;-71
2023/03/02 03:44:52;;;;;;;27.13;11.30;;;;;;;;;;5072444;28;20024;-71
2023/03/02 03:47:18;;;;;;;25.70;12.07;;;;;;;;;;5072160;28;20032;-70
2023/03/02 03:49:44;;;;;;;27.75;12.75;;;;;;;;;;5067267;28;20020;-72
2023/03/02 03:52:10;;;;;;;27.45;11.95;;;;;;;;;;5032370;28;20022;-70
2023/03/02 03:54:36;;;;;;;28.92;11.10;;;;;;;;;;5046302;28;20032;-70
2023/03/02 03:57:02;;;;;;;25.60;11.73;;;;;;;;;;5052359;28;20100;-72
2023/03/02 03:59:28;;;;;;;28.77;12.32;;;;;;;;;;5052261;28;20037;-71
2023/03/02 04:01:55;;;;;;;29.75;12.73;;;;;;;;;;5051109;28;20473;-72
2023/03/02 04:04:24;;;;;;;34.20;12.68;;;;;;;;;;5052433;28;20029;-72
2023/03/02 04:06:50;;;;;;;32.35;13.40;;;;;;;;;;5052146;28;20017;-71
2023/03/02 04:09:16;;;;;;;30.20;14.25;;;;;;;;;;5052269;28;20071;-72
2023/03/02 04:11:43;;;;;;;31.90;13.05;;;;;;;;;;5048658;28;20025;-72
2023/03/02 04:14:09;;;;;;;32.15;13.73;;;;;;;;;;5051925;28;20037;-72
2023/03/02 04:16:36;;;;;;;38.75;15.48;;;;;;;;;;5052020;28;20024;-71
2023/03/02 04:19:03;;;;;;;35.33;13.90;;;;;;;;;;5051576;28;20056;-72
2023/03/02 04:21:29;;;;;;;37.95;15.30;;;;;;;;;;5051959;28;20025;-71
2023/03/02 04:23:55;;;;;;;32.67;14.05;;;;;;;;;;5051901;28;20040;-72
2023/03/02 04:26:21;;;;;;;33.28;14.85;;;;;;;;;;5051726;28;20437;-72
2023/03/02 04:28:49;;;;;;;37.30;14.27;;;;;;;;;;5048239;28;20037;-72
2023/03/02 04:31:16;;;;;;;38.08;15.23;;;;;;;;;;5051543;28;20017;-72
2023/03/02 04:33:42;;;;;;;33.97;14.90;;;;;;;;;;5051395;28;20039;-72
2023/03/02 04:36:08;;;;;;;30.40;13.65;;;;;;;;;;5051655;28;20108;-72
2023/03/02 04:38:34;;;;;;;36.15;14.85;;;;;;;;;;5051596;28;20032;-72
2023/03/02 04:41:00;;;;;;;34.75;14.52;;;;;;;;;;5051528;28;20077;-72
2023/03/02 04:43:26;;;;;;;36.70;14.80;;;;;;;;;;5051386;28;20094;-72
2023/03/02 04:45:53;;;;;;;33.92;14.95;;;;;;;;;;5045163;28;20029;-73
2023/03/02 04:48:19;;;;;;;35.15;14.48;;;;;;;;;;5051267;28;20511;-72
2023/03/02 04:50:45;;;;;;;35.17;14.57;;;;;;;;;;5051652;28;20028;-72
2023/03/02 04:53:11;;;;;;;41.53;15.50;;;;;;;;;;5051280;28;20124;-72
2023/03/02 04:55:37;;;;;;;37.80;16.25;;;;;;;;;;5050998;28;20044;-72
2023/03/02 04:58:03;;;;;;;33.80;15.10;;;;;;;;;;5051474;28;20045;-72
2023/03/02 05:00:33;;;;;;;37.97;15.60;;;;;;;;;;5051271;28;20025;-71
2023/03/02 05:02:59;;;;;;;45.35;16.60;;;;;;;;;;5045937;28;20040;-72
2023/03/02 05:05:26;;;;;;;41.90;16.65;;;;;;;;;;5051202;28;20086;-73
2023/03/02 05:07:52;;;;;;;41.90;17.77;;;;;;;;;;5049781;28;20108;-72
2023/03/02 05:10:19;;;;;;;40.20;17.27;;;;;;;;;;5051136;28;20032;-73
2023/03/02 05:13:01;;;;;;;43.53;16.92;;;;;;;;;;5051168;28;20025;-73
2023/03/02 05:15:37;;;;;;;42.20;17.10;;;;;;;;;;5050909;28;20385;-72
2023/03/02 05:18:05;;;;;;;41.92;17.05;;;;;;;;;;5051014;28;20025;-73
2023/03/02 05:20:31;;;;;;;36.60;16.27;;;;;;;;;;5046019;28;20036;-72
2023/03/02 05:22:58;;;;;;;48.97;17.48;;;;;;;;;;5049494;28;20028;-72
2023/03/02 05:25:25;;;;;;;41.00;17.17;;;;;;;;;;5050931;28;20033;-73
2023/03/02 05:27:51;;;;;;;40.72;17.48;;;;;;;;;;5050869;28;20035;-74
2023/03/02 05:30:18;;;;;;;42.05;16.88;;;;;;;;;;5050948;28;20021;-73
2023/03/02 05:32:44;;;;;;;46.42;17.95;;;;;;;;;;5050934;28;20382;-72
2023/03/02 05:35:11;;;;;;;44.35;17.27;;;;;;;;;;5049533;28;20115;-73
2023/03/02 05:37:40;;;;;;;46.97;19.00;;;;;;;;;;5047586;28;20036;-72
2023/03/02 05:40:08;;;;;;;45.95;18.73;;;;;;;;;;5050827;28;20068;-71
2023/03/02 05:42:34;;;;;;;42.20;17.40;;;;;;;;;;5050704;28;20032;-72
2023/03/02 05:45:01;;;;;;;40.45;17.75;;;;;;;;;;5050787;28;20025;-72
2023/03/02 05:47:27;;;;;;;36.83;16.63;;;;;;;;;;5050648;28;20405;-73
2023/03/02 05:49:53;;;;;;;44.40;16.88;;;;;;;;;;5050638;28;20029;-73
2023/03/02 05:52:19;;;;;;;40.03;17.92;;;;;;;;;;5050738;28;20048;-71
2023/03/02 05:54:45;;;;;;;41.35;16.90;;;;;;;;;;5039770;28;20049;-71
2023/03/02 05:57:11;;;;;;;45.13;18.77;;;;;;;;;;5048929;28;20028;-71
2023/03/02 05:59:37;;;;;;;38.22;17.52;;;;;;;;;;5033214;28;20025;-71
2023/03/02 06:02:03;;;;;;;46.00;17.40;;;;;;;;;;5051658;28;20108;-71
2023/03/02 06:04:30;;;;;;;43.45;18.33;;;;;;;;;;5054191;28;20025;-72
2023/03/02 06:06:56;;;;;;;40.63;16.85;;;;;;;;;;5054095;28;20024;-71
2023/03/02 06:09:22;;;;;;;47.63;18.38;;;;;;;;;;5054168;28;20033;-71
2023/03/02 06:11:48;;;;;;;45.78;19.20;;;;;;;;;;5053896;28;20071;-70
2023/03/02 06:14:14;;;;;;;47.63;19.15;;;;;;;;;;5049083;28;20390;-73
2023/03/02 06:16:40;;;;;;;42.58;18.58;;;;;;;;;;5037340;28;20025;-70
2023/03/02 06:19:06;;;;;;;51.00;18.58;;;;;;;;;;5033856;28;20053;-70
2023/03/02 06:21:32;;;;;;;48.05;19.80;;;;;;;;;;5032953;28;20021;-70
2023/03/02 06:23:58;;;;;;;46.42;19.15;;;;;;;;;;5048988;28;20029;-70
2023/03/02 06:26:24;;;;;;;48.03;20.13;;;;;;;;;;5051056;28;20025;-70
2023/03/02 06:28:50;;;;;;;44.92;18.33;;;;;;;;;;5019634;28;20596;-70
2023/03/02 06:31:16;;;;;;;49.42;20.13;;;;;;;;;;5033945;28;20030;-71
2023/03/02 06:33:42;;;;;;;49.25;19.95;;;;;;;;;;5048000;28;20091;-70
2023/03/02 06:36:11;;;;;;;53.15;19.95;;;;;;;;;;5033774;28;20523;-71
2023/03/02 06:38:37;;;;;;;51.80;19.58;;;;;;;;;;5033759;28;20470;-72
2023/03/02 06:41:03;;;;;;;48.95;19.42;;;;;;;;;;5034323;28;20116;-71
2023/03/02 06:43:29;;;;;;;49.80;18.75;;;;;;;;;;5036722;28;20025;-71
2023/03/02 06:45:55;;;;;;;57.60;21.77;;;;;;;;;;5043379;28;20099;-71
2023/03/02 06:48:21;;;;;;;44.08;19.10;;;;;;;;;;5042496;28;20037;-72
2023/03/02 06:50:47;;;;;;;48.75;20.67;;;;;;;;;;5041971;28;20111;-72
2023/03/02 06:53:14;;;;;;;50.55;19.98;;;;;;;;;;5044438;28;20107;-72
2023/03/02 06:55:40;;;;;;;61.42;22.13;;;;;;;;;;5049234;28;20032;-71
2023/03/02 06:58:06;;;;;;;49.08;20.08;;;;;;;;;;5040990;28;20020;-71
2023/03/02 07:00:32;;;;;;;54.72;21.70;;;;;;;;;;5042162;28;20482;-72
2023/03/02 07:02:58;;;;;;;59.00;20.67;;;;;;;;;;5049958;28;20082;-72
2023/03/02 07:05:24;;;;;;;54.25;22.08;;;;;;;;;;5049421;28;20056;-72
2023/03/02 07:07:50;;;;;;;59.28;20.35;;;;;;;;;;5033689;28;20025;-70
2023/03/02 07:10:16;;;;;;;56.42;22.42;;;;;;;;;;5033858;28;20032;-70
2023/03/02 07:12:42;;;;;;;49.17;20.27;;;;;;;;;;5034305;28;20029;-70
2023/03/02 07:15:11;;;;;;;61.78;22.23;;;;;;;;;;5038739;28;20128;-70
2023/03/02 07:17:38;;;;;;;52.63;22.15;;;;;;;;;;5032743;28;20025;-69
2023/03/02 07:20:05;;;;;;;54.05;21.58;;;;;;;;;;5032932;28;20052;-71
2023/03/02 07:22:31;;;;;;;51.22;21.25;;;;;;;;;;5031960;28;20029;-71
2023/03/02 07:24:57;;;;;;;55.58;22.45;;;;;;;;;;5033248;28;20060;-69
2023/03/02 07:27:23;;;;;;;56.78;23.45;;;;;;;;;;5033212;28;20040;-72
2023/03/02 07:29:49;;;;;;;48.97;21.67;;;;;;;;;;5032846;28;20017;-71
2023/03/02 07:32:15;;;;;;;51.25;21.10;;;;;;;;;;5032721;28;20022;-71
2023/03/02 07:34:41;;;;;;;59.47;23.85;;;;;;;;;;5032793;28;20057;-70
2023/03/02 07:37:07;;;;;;;55.58;23.42;;;;;;;;;;5032703;28;20025;-70
2023/03/02 07:39:33;;;;;;;68.70;24.20;;;;;;;;;;5032566;28;20508;-70
2023/03/02 07:42:00;;;;;;;62.22;22.65;;;;;;;;;;5032349;28;20053;-68
2023/03/02 07:44:27;;;;;;;60.30;22.52;;;;;;;;;;5032620;28;20528;-70
2023/03/02 07:46:53;;;;;;;54.55;21.52;;;;;;;;;;5031213;28;20392;-70
2023/03/02 07:49:19;;;;;;;55.67;23.70;;;;;;;;;;5033257;28;20084;-71
2023/03/02 07:51:45;;;;;;;51.08;22.13;;;;;;;;;;5031942;28;20032;-68
2023/03/02 07:54:11;;;;;;;65.35;24.67;;;;;;;;;;5032275;28;20038;-69
2023/03/02 07:56:37;;;;;;;56.67;22.13;;;;;;;;;;5040720;28;20033;-70
2023/03/02 07:59:03;;;;;;;61.10;24.25;;;;;;;;;;5050969;28;20116;-70
2023/03/02 08:01:30;;;;;;;54.95;23.13;;;;;;;;;;5052207;28;20094;-69
2023/03/02 08:03:56;;;;;;;62.20;24.52;;;;;;;;;;5052511;28;20029;-70
2023/03/02 08:06:22;;;;;;;56.70;21.95;;;;;;;;;;5065133;28;20107;-75
2023/03/02 08:08:48;;;;;;;56.67;24.40;;;;;;;;;;5072063;28;20121;-75
2023/03/02 08:11:15;;;;;;;58.65;23.67;;;;;;;;;;5071993;28;20024;-72
2023/03/02 08:13:41;;;;;;;56.53;24.02;;;;;;;;;;5036468;28;20049;-72
2023/03/02 08:16:08;;;;;;;54.85;23.42;;;;;;;;;;5051909;28;20098;-73
2023/03/02 08:18:35;;;;;;;59.55;23.55;;;;;;;;;;5042486;28;20533;-74
2023/03/02 08:21:01;;;;;;;55.55;22.05;;;;;;;;;;5035174;28;20025;-74
2023/03/02 08:23:27;;;;;;;61.35;23.20;;;;;;;;;;5047452;28;20389;-74
2023/03/02 08:25:54;;;;;;;58.70;24.48;;;;;;;;;;5049480;28;20021;-74
2023/03/02 08:28:20;;;;;;;62.00;23.80;;;;;;;;;;5031723;28;20025;-73
2023/03/02 08:30:57;;;;;;;63.22;24.55;;;;;;;;;;5030265;28;20044;-74
2023/03/02 08:33:23;;;;;;;60.38;22.63;;;;;;;;;;5031452;28;20030;-75
2023/03/02 08:35:55;;;;;;;58.80;24.02;;;;;;;;;;5031826;28;20030;-77
2023/03/02 08:38:22;;;;;;;59.88;24.83;;;;;;;;;;5047180;28;20024;-72
2023/03/02 08:40:50;;;;;;;54.45;23.15;;;;;;;;;;5033952;28;20033;-75
2023/03/02 08:43:16;;;;;;;65.18;25.48;;;;;;;;;;5031444;28;20402;-75
2023/03/02 08:45:42;;;;;;;61.60;24.50;;;;;;;;;;5031467;28;20025;-73
2023/03/02 08:48:08;;;;;;;61.40;25.73;;;;;;;;;;5031165;28;20539;-76
2023/03/02 08:50:34;;;;;;;61.97;25.55;;;;;;;;;;5031670;28;20030;-76
2023/03/02 08:53:00;;;;;;;60.42;26.58;;;;;;;;;;5038818;28;20500;-76
2023/03/02 08:55:26;;;;;;;69.50;26.20;;;;;;;;;;5051030;28;20039;-76
2023/03/02 08:57:53;;;;;;;54.97;25.55;;;;;;;;;;5050330;28;20036;-76
2023/03/02 09:00:19;;;;;;;64.30;25.73;;;;;;;;;;5051085;28;20394;-79
2023/03/02 09:02:45;;;;;;;62.17;26.02;;;;;;;;;;5051401;28;20139;-82
2023/03/02 09:05:11;;;;;;;66.70;26.02;;;;;;;;;;5051219;28;20478;-83
2023/03/02 09:07:37;;;;;;;65.45;27.02;;;;;;;;;;5051096;28;20025;-81
2023/03/02 09:10:04;;;;;;;66.05;27.90;;;;;;;;;;5049817;28;20055;-81
2023/03/02 09:12:30;;;;;;;61.70;26.27;;;;;;;;;;5050651;28;20025;-80
2023/03/02 09:14:56;;;;;;;63.47;26.25;;;;;;;;;;5055913;28;20028;-79
2023/03/02 09:17:22;;;;;;;63.63;26.92;;;;;;;;;;5050198;28;20083;-79
2023/03/02 09:19:48;;;;;;;58.78;25.63;;;;;;;;;;5050735;28;20606;-79
2023/03/02 09:22:14;;;;;;;67.57;27.63;;;;;;;;;;5050938;28;20351;-82
2023/03/02 09:24:40;;;;;;;70.38;25.90;;;;;;;;;;5051355;28;20534;-80
2023/03/02 09:27:06;;;;;;;57.22;25.40;;;;;;;;;;5051797;28;20065;-82
2023/03/02 09:29:32;;;;;;;64.97;28.05;;;;;;;;;;5050524;28;20116;-80
2023/03/02 09:31:58;;;;;;;66.15;27.67;;;;;;;;;;5052888;28;20021;-76
2023/03/02 09:34:24;;;;;;;64.22;27.05;;;;;;;;;;5038227;28;20037;-74
2023/03/02 09:36:50;;;;;;;61.33;27.35;;;;;;;;;;5035240;28;20030;-81
2023/03/02 09:39:18;;;;;;;65.28;26.42;;;;;;;;;;5035021;28;20037;-79
2023/03/02 09:42:19;;;;;;;63.75;27.38;;;;;;;;;;5035897;28;20045;-74
2023/03/02 09:44:45;;;;;;;71.70;29.43;;;;;;;;;;5052461;28;20037;-79
2023/03/02 09:47:30;;;;;;;67.30;26.48;;;;;;;;;;5044531;28;20041;-77
2023/03/02 09:50:14;;;;;;;70.25;26.50;;;;;;;;;;5054812;28;20024;-74
2023/03/02 09:52:47;;;;;;;69.65;26.00;;;;;;;;;;5054706;28;20407;-73
2023/03/02 09:55:15;;;;;;;73.65;27.70;;;;;;;;;;5054517;28;20033;-74
2023/03/02 09:57:42;;;;;;;53.83;25.00;;;;;;;;;;5053327;28;20044;-74
2023/03/02 10:00:11;;;;;;;64.82;26.35;;;;;;;;;;5054270;28;20080;-74
2023/03/02 10:02:46;;;;;;;59.58;25.67;;;;;;;;;;5054429;28;20373;-75
2023/03/02 10:05:21;;;;;;;56.50;25.20;;;;;;;;;;5053528;28;20032;-74
2023/03/02 10:07:47;;;;;;;55.05;24.10;;;;;;;;;;5052816;28;20268;-74
2023/03/02 10:10:24;;;;;;;61.47;25.75;;;;;;;;;;5054232;28;20090;-74
2023/03/02 10:12:50;;;;;;;57.92;24.50;;;;;;;;;;5054448;28;20028;-74
2023/03/02 10:15:18;;;;;;;56.65;23.13;;;;;;;;;;5062004;28;20055;-74
2023/03/02 10:17:56;;;;;;;52.95;22.65;;;;;;;;;;5074148;28;20021;-75
2023/03/02 10:20:30;;;;;;;54.92;22.40;;;;;;;;;;5073892;28;20068;-74
2023/03/02 10:23:00;;;;;;;52.15;22.05;;;;;;;;;;5053831;28;20083;-72
2023/03/02 10:25:26;;;;;;;51.03;21.92;;;;;;;;;;5052601;28;20052;-76
2023/03/02 10:27:55;;;;;;;46.17;21.63;;;;;;;;;;5053796;28;20129;-75
2023/03/02 10:30:28;;;;;;;47.90;21.77;;;;;;;;;;5054074;28;20025;-75
2023/03/02 10:32:56;;;;;;;42.92;19.55;;;;;;;;;;5053710;28;20029;-75
2023/03/02 10:35:23;;;;;;;46.13;19.83;;;;;;;;;;5054260;28;20029;-74
2023/03/02 10:38:09;;;;;;;38.90;19.15;;;;;;;;;;5052603;28;20037;-74
2023/03/02 10:40:57;;;;;;;43.72;19.60;;;;;;;;;;5051752;28;20067;-77
2023/03/02 10:43:36;;;;;;;41.90;19.35;;;;;;;;;;5053248;28;20025;-75
2023/03/02 10:46:06;;;;;;;39.65;17.95;;;;;;;;;;5053644;28;20025;-77
2023/03/02 10:48:35;;;;;;;44.53;19.15;;;;;;;;;;5053454;28;20017;-72
2023/03/02 10:51:01;;;;;;;39.00;17.58;;;;;;;;;;5053665;28;20025;-73
2023/03/02 10:53:27;;;;;;;39.55;17.38;;;;;;;;;;5053695;28;20052;-73
2023/03/02 10:55:54;;;;;;;38.38;18.10;;;;;;;;;;5051124;28;20509;-73
2023/03/02 10:58:24;;;;;;;36.78;17.55;;;;;;;;;;5053557;28;20096;-73
2023/03/02 11:00:58;;;;;;;36.45;17.45;;;;;;;;;;5053330;28;20055;-74
2023/03/02 11:03:24;;;;;;;36.30;18.90;;;;;;;;;;5053298;28;20029;-74
2023/03/02 11:05:50;;;;;;;38.08;18.25;;;;;;;;;;5053050;28;20441;-73
2023/03/02 11:08:17;;;;;;;38.05;16.92;;;;;;;;;;5053276;28;20100;-72
2023/03/02 11:11:02;;;;;;;34.50;16.88;;;;;;;;;;5053346;28;20396;-72
2023/03/02 11:13:29;;;;;;;35.58;16.40;;;;;;;;;;5050894;28;20045;-77
2023/03/02 11:15:58;;;;;;;35.88;17.05;;;;;;;;;;5066203;28;20079;-76
2023/03/02 11:18:24;;;;;;;37.65;16.92;;;;;;;;;;5072522;28;20102;-74
2023/03/02 11:20:52;;;;;;;34.45;16.20;;;;;;;;;;5072817;28;20063;-75
2023/03/02 11:23:18;;;;;;;36.05;16.05;;;;;;;;;;5073073;28;20021;-74
2023/03/02 11:25:50;;;;;;;36.42;17.30;;;;;;;;;;5072890;28;20031;-78
2023/03/02 11:28:32;;;;;;;35.22;17.73;;;;;;;;;;5035209;28;20028;-78
2023/03/02 11:30:58;;;;;;;;;;;;;;;;;;5053413;28;20389;-78
2023/03/02 11:33:34;;;;;;;37.35;17.38;;;;;;;;;;5040438;28;19905;-73
2023/03/02 11:36:19;;;;;;;39.92;16.98;;;;;;;;;;5032842;28;20060;-74
2023/03/02 11:38:50;;;;;;;38.03;17.38;;;;;;;;;;5032416;28;20071;-72
2023/03/02 11:41:27;;;;;;;34.80;16.10;;;;;;;;;;5032596;28;20644;-75
2023/03/02 11:43:53;;;;;;;31.30;15.77;;;;;;;;;;5032632;28;20053;-72
2023/03/02 11:46:25;;;;;;;35.92;15.93;;;;;;;;;;5033743;28;20029;-71
2023/03/02 11:48:53;;;;;;;32.53;15.57;;;;;;;;;;5032229;28;20026;-76
2023/03/02 11:51:21;;;;;;;28.50;15.07;;;;;;;;;;5032220;28;20118;-75
2023/03/02 11:53:59;;;;;;;29.33;13.77;;;;;;;;;;5031408;28;20021;-76
2023/03/02 11:56:30;;;;;;;23.63;13.43;;;;;;;;;;5032981;28;20387;-74
2023/03/02 11:58:58;;;;;;;26.33;13.02;;;;;;;;;;5032415;28;20354;-73
2023/03/02 12:01:25;;;;;;;29.70;13.98;;;;;;;;;;5032781;28;20438;-77
2023/03/02 12:03:52;;;;;;;23.95;13.93;;;;;;;;;;5045841;28;20029;-72
2023/03/02 12:06:18;;;;;;;28.73;14.95;;;;;;;;;;5052205;28;20025;-75
2023/03/02 12:08:45;;;;;;;28.25;14.50;;;;;;;;;;5051868;28;20086;-71
2023/03/02 12:11:18;;;;;;;22.27;11.95;;;;;;;;;;5052194;28;20067;-77
2023/03/02 12:14:01;;;;;;;24.48;12.30;;;;;;;;;;5051697;28;20176;-74
2023/03/02 12:16:35;;;;;;;25.98;12.60;;;;;;;;;;5049385;28;20036;-73
2023/03/02 12:19:11;;;;;;;26.98;12.88;;;;;;;;;;5051422;28;20041;-74
2023/03/02 12:21:42;;;;;;;21.85;12.13;;;;;;;;;;5034556;28;20048;-72
2023/03/02 12:24:22;;;;;;;23.17;12.77;;;;;;;;;;5031113;28;20032;-73
2023/03/02 12:26:59;;;;;;;23.75;12.75;;;;;;;;;;5043888;28;20021;-71
2023/03/02 12:29:25;;;;;;;22.27;13.70;;;;;;;;;;5051859;28;20055;-70
2023/03/02 12:31:52;;;;;;;25.27;15.23;;;;;;;;;;5049031;28;20025;-74
2023/03/02 12:34:25;;;;;;;24.75;15.35;;;;;;;;;;5040635;28;20037;-75
2023/03/02 12:36:53;;;;;;;23.67;14.65;;;;;;;;;;5049851;28;20021;-78
2023/03/02 12:39:27;;;;;;;21.38;12.45;;;;;;;;;;5034295;28;20030;-77
2023/03/02 12:42:05;;;;;;;17.58;11.30;;;;;;;;;;5031601;28;20036;-76
2023/03/02 12:44:34;;;;;;;17.38;11.32;;;;;;;;;;5031516;28;20026;-74
2023/03/02 12:47:00;;;;;;;21.17;11.88;;;;;;;;;;5031469;28;20029;-74
2023/03/02 12:49:32;;;;;;;19.35;12.15;;;;;;;;;;5031246;28;20087;-75
2023/03/02 12:51:59;;;;;;;24.42;15.10;;;;;;;;;;5031155;28;20404;-72
2023/03/02 12:54:30;;;;;;;28.20;16.08;;;;;;;;;;5032237;28;20049;-73
2023/03/02 12:57:05;;;;;;;22.80;15.32;;;;;;;;;;5031441;28;20479;-73
2023/03/02 12:59:31;;;;;;;21.73;14.90;;;;;;;;;;5031705;28;20247;-73
2023/03/02 13:02:17;;;;;;;21.35;14.98;;;;;;;;;;5044153;28;20028;-73
2023/03/02 13:04:43;;;;;;;18.60;13.40;;;;;;;;;;5051314;28;20163;-74
2023/03/02 13:07:19;;;;;;;18.50;13.48;;;;;;;;;;5047875;28;20143;-74
2023/03/02 13:09:49;;;;;;;19.85;12.68;;;;;;;;;;5041822;28;20048;-70
2023/03/02 13:12:16;;;;;;;18.42;12.45;;;;;;;;;;5049087;28;20021;-72
2023/03/02 13:14:43;;;;;;;19.80;12.93;;;;;;;;;;5031768;28;20119;-70
2023/03/02 13:17:41;;;;;;;21.30;12.57;;;;;;;;;;5030907;28;20045;-72
2023/03/02 13:20:10;;;;;;;16.17;11.95;;;;;;;;;;5050613;28;20045;-74
2023/03/02 13:22:36;;;;;;;18.38;11.98;;;;;;;;;;5031689;28;20053;-75
2023/03/02 13:25:04;;;;;;;18.13;12.35;;;;;;;;;;5045461;28;20032;-75
2023/03/02 13:27:32;;;;;;;17.13;11.60;;;;;;;;;;5050622;28;20033;-75
2023/03/02 13:30:08;;;;;;;17.25;11.50;;;;;;;;;;5050554;28;20102;-76
2023/03/02 13:32:43;;;;;;;16.02;12.02;;;;;;;;;;5050735;28;20029;-73
2023/03/02 13:35:15;;;;;;;16.35;11.50;;;;;;;;;;5049216;28;20583;-75
2023/03/02 13:37:42;;;;;;;15.02;11.65;;;;;;;;;;5050583;28;20106;-76
2023/03/02 13:40:26;;;;;;;17.02;10.43;;;;;;;;;;5048813;28;20461;-75
2023/03/02 13:42:53;;;;;;;17.98;11.38;;;;;;;;;;5050600;28;20025;-75
2023/03/02 13:45:25;;;;;;;16.23;10.65;;;;;;;;;;5050089;28;20461;-77
2023/03/02 13:47:52;;;;;;;13.68;9.43;;;;;;;;;;5033025;28;20033;-78
2023/03/02 13:50:20;;;;;;;15.10;9.48;;;;;;;;;;5030800;28;20159;-78
2023/03/02 13:52:46;;;;;;;14.40;9.48;;;;;;;;;;5031236;28;20032;-78
2023/03/02 13:55:13;;;;;;;14.13;9.13;;;;;;;;;;5030736;28;20179;-75
2023/03/02 13:57:40;;;;;;;13.68;9.32;;;;;;;;;;5030509;28;20025;-77
2023/03/02 14:00:10;;;;;;;14.18;8.75;;;;;;;;;;5045423;28;20103;-78
2023/03/02 14:02:36;;;;;;;12.85;8.40;;;;;;;;;;5046429;28;20157;-78
2023/03/02 14:05:02;;;;;;;12.30;8.38;;;;;;;;;;5030702;28;20017;-77
2023/03/02 14:07:28;;;;;;;12.20;8.65;;;;;;;;;;5030613;28;20033;-76
2023/03/02 14:09:54;;;;;;;10.55;7.78;;;;;;;;;;5030394;28;20017;-77
2023/03/02 14:12:22;;;;;;;13.60;7.85;;;;;;;;;;5030599;28;20033;-77
2023/03/02 14:14:48;;;;;;;9.98;7.72;;;;;;;;;;5030501;28;20056;-77
2023/03/02 14:17:16;;;;;;;10.57;8.13;;;;;;;;;;5031397;28;20017;-77
2023/03/02 14:19:42;;;;;;;14.32;8.55;;;;;;;;;;5035587;28;20532;-78
2023/03/02 14:22:11;;;;;;;11.15;7.93;;;;;;;;;;5033008;28;20120;-78
2023/03/02 14:24:37;;;;;;;11.00;8.05;;;;;;;;;;5034172;28;20029;-78
2023/03/02 14:27:03;;;;;;;12.82;8.07;;;;;;;;;;5034166;28;20067;-78
2023/03/02 14:29:30;;;;;;;12.18;7.90;;;;;;;;;;5034041;28;20148;-78